Waco Regional Airport
KACT : rendu visible

Aérodrome :











RETROUVEZ-NOUS SUR...

 
LOGIN :

S'inscrire | Disclaimer

   EN    FR    IT 

 









Légende :    VFR   VFR Marginal   IFR   IFR Intensif   IFR Très Intensif
Visi : 
Plafond : 
>= 8 km
>= 3000ft
5 à 8 km
1000 à 3000 ft
1500m à 5 km
500 à 1000 ft
800 à 1500m
200 à 500 ft
< 800m
< 200 ft
Symboles :   Orages  Brouillard  Fortes neiges  Fortes précipitations  Vent > 20 kt






- Altitude de l'aérodrome : 516 ft
- Code IATA : ACT


KACT - Waco Regional

DERNIER METAR :
  • 250651Z AUTO 25006KT 10SM BKN090 17/16 A2992 RMK AO2 SLP125 T01720156

METARs EXPIRÉS :
  • 250551Z AUTO 22009KT 10SM SCT050 BKN090 18/16 A2988 RMK AO2 LTG DSNT E AND SE RAE11 TSE06 SLP114 P0005 60081 T01780156 10233 20172 402610150 51032
  • 250525Z AUTO 22009KT 10SM FEW048 SCT090 18/16 A2988 RMK AO2 LTG DSNT E-S RAE11 TSE06 P0005 T01780161
  • 250506Z AUTO 22011G20KT 10SM VCTS -RA SCT021 BKN080 BKN095 19/17 A2987 RMK AO2 LTG DSNT ALQDS TSE06 P0005 T01890172
  • 250457Z AUTO 25015G26KT 3SM -TSRA BR BKN021 BKN080 OVC110 19/17 A2987 RMK AO2 LTG DSNT ALQDS P0005 T01890172
  • 250451Z 24019KT 1SM +TSRA BR BKN021 BKN080 OVC120 19/17 A2986 RMK AO2 PK WND 24041/0436 WSHFT 0429 LTG DSNT NE AND S AND SW RAB36 TSB28 SLP108 P0076 T01890167
  • 250443Z 25019G41KT 1/2SM +TSRA FG SCT013 BKN020 BKN080 18/16 A2988 RMK AO2 PK WND 24041/0436 WSHFT 0429 LTG DSNT NE AND SW AND W RAB36 TSB28 P0042 T01780161
  • 250421Z 20012G18KT 10SM VCTS CLR 22/18 A2981 RMK AO2 LTG DSNT W-NE T02220178

TAF KACT
Valide du 25 à 06h jusqu'au 26 à 06h UTC


250528Z 2506/2606 22010G20KT P6SM VCTS BKN080CB
FM250700 25009KT P6SM SCT100
FM250800 31010KT P6SM SKC
FM260000 05005KT P6SM SKC
FM260200 17003KT P6SM SKC
FIR KZFW / Amérique du Nord



MET'MAP, la Météo Aéronautique d'un coup d'oeil ! - Copyright ORBIFLY Décembre 2007 - Disclaimer

ORBIFLY MET'MAP TEAM :

Programmation & Développement : Alexandra Zaïnal
Sur une idée originale de : Baudouin d'Aumeries
Assistance à la programmation : Marc-Olivier Méhu
Soutien technique & logistique : Manuel Goepfert

Contact : metmap@orbifly.com




SOURCES & CREDITS :

   NOAA       Earth
Advisory